createdAt,value
2023-03-13T00:02:32.321Z,53.62
2023-03-13T00:05:36.199Z,53.83
2023-03-13T00:08:38.980Z,53.80
2023-03-13T00:11:43.424Z,53.60
2023-03-13T00:14:45.914Z,53.80
2023-03-13T00:17:48.873Z,54.16
2023-03-13T00:21:01.496Z,54.42
2023-03-13T00:24:05.093Z,55.01
2023-03-13T00:27:07.715Z,55.36
2023-03-13T00:30:12.459Z,55.62
2023-03-13T00:33:15.087Z,55.47
2023-03-13T00:36:20.823Z,56.09
2023-03-13T00:39:24.290Z,56.15
2023-03-13T00:42:27.278Z,57.20
2023-03-13T00:45:31.037Z,57.47
2023-03-13T00:48:34.682Z,57.93
2023-03-13T00:51:37.411Z,58.15
2023-03-13T00:54:41.434Z,58.49
2023-03-13T00:57:44.084Z,58.31
2023-03-13T01:00:47.669Z,58.25
2023-03-13T01:03:55.163Z,58.91
2023-03-13T01:06:58.759Z,59.13
2023-03-13T01:10:01.481Z,59.07
2023-03-13T01:13:05.301Z,59.36
2023-03-13T01:16:13.516Z,59.55
2023-03-13T01:19:17.341Z,60.17
2023-03-13T01:22:20.732Z,60.78
2023-03-13T01:25:23.670Z,61.33
2023-03-13T01:28:29.730Z,61.58
2023-03-13T01:31:34.985Z,61.33
2023-03-13T01:34:37.795Z,61.84
2023-03-13T01:37:40.622Z,61.56
2023-03-13T01:40:49.141Z,62.08
2023-03-13T01:43:52.394Z,62.43
2023-03-13T01:46:55.267Z,62.42
2023-03-13T01:50:01.150Z,62.50
2023-03-13T01:53:04.469Z,62.71
2023-03-13T01:56:10.179Z,63.04
2023-03-13T01:59:19.197Z,63.20
2023-03-13T02:02:23.564Z,63.16
2023-03-13T02:05:28.772Z,62.63
2023-03-13T02:08:38.082Z,62.54
2023-03-13T02:12:10.444Z,62.40
2023-03-13T02:15:18.725Z,62.47
2023-03-13T02:18:21.812Z,62.92
2023-03-13T02:21:24.706Z,63.78
2023-03-13T02:24:38.716Z,63.89
2023-03-13T02:27:43.281Z,64.45
2023-03-13T02:30:49.868Z,64.86
2023-03-13T02:33:55.578Z,66.04
2023-03-13T02:37:02.591Z,66.12
2023-03-13T02:40:10.867Z,66.43
2023-03-13T02:43:21.177Z,66.96
2023-03-13T02:46:24.494Z,67.61
2023-03-13T02:49:30.192Z,68.37
2023-03-13T02:52:42.159Z,68.60
2023-03-13T02:55:46.470Z,69.59
2023-03-13T02:58:50.720Z,70.29
2023-03-13T03:01:54.858Z,71.30
2023-03-13T03:05:00.274Z,71.83
2023-03-13T03:08:04.856Z,72.33
2023-03-13T03:11:08.197Z,73.05
2023-03-13T03:14:12.494Z,73.13
2023-03-13T03:17:17.000Z,73.55
2023-03-13T03:20:19.840Z,73.98
2023-03-13T03:23:23.219Z,74.18
2023-03-13T03:26:27.215Z,74.44
2023-03-13T03:29:30.148Z,74.86
2023-03-13T03:32:33.381Z,75.23
2023-03-13T03:35:38.639Z,74.76
2023-03-13T03:38:43.272Z,74.67
2023-03-13T03:41:47.015Z,74.50
2023-03-13T03:44:49.938Z,75.05
2023-03-13T03:47:53.966Z,75.14
2023-03-13T03:50:57.285Z,75.29
2023-03-13T03:54:00.874Z,75.66
2023-03-13T03:57:04.426Z,75.90
2023-03-13T04:00:10.771Z,76.39
2023-03-13T04:03:17.060Z,76.07
2023-03-13T04:06:33.939Z,75.75
2023-03-13T04:09:37.749Z,75.88
2023-03-13T04:12:41.557Z,76.15
2023-03-13T04:15:44.395Z,76.13
2023-03-13T04:18:47.955Z,76.49
2023-03-13T04:21:51.772Z,76.43
2023-03-13T04:24:56.645Z,76.63
2023-03-13T04:27:59.579Z,76.69
2023-03-13T04:31:03.336Z,76.34
2023-03-13T04:34:06.458Z,76.15
2023-03-13T04:37:09.955Z,76.54
2023-03-13T04:40:13.833Z,76.84
2023-03-13T04:43:17.777Z,76.81
2023-03-13T04:46:21.614Z,76.62
2023-03-13T04:49:25.424Z,76.82
2023-03-13T04:52:28.848Z,77.02
2023-03-13T04:55:32.188Z,77.08
2023-03-13T04:58:35.288Z,76.83
2023-03-13T05:01:38.952Z,77.03
2023-03-13T05:04:42.978Z,77.54
2023-03-13T05:07:47.445Z,77.05
2023-03-13T05:10:54.042Z,77.41
2023-03-13T05:14:01.488Z,77.48
2023-03-13T05:17:04.260Z,77.29
2023-03-13T05:20:11.260Z,77.19
2023-03-13T05:23:17.568Z,77.25
2023-03-13T05:26:21.372Z,77.14
2023-03-13T05:29:24.338Z,77.14
2023-03-13T05:32:27.548Z,77.28
2023-03-13T05:35:31.136Z,76.98
2023-03-13T05:38:34.511Z,76.87
2023-03-13T05:41:37.435Z,76.89
2023-03-13T05:44:41.467Z,76.87
2023-03-13T05:47:44.121Z,76.68
2023-03-13T05:50:48.373Z,76.82
2023-03-13T05:53:51.306Z,76.19
2023-03-13T05:56:54.503Z,76.65
2023-03-13T06:00:00.103Z,76.61
2023-03-13T06:03:05.205Z,76.93
2023-03-13T06:06:09.327Z,77.22
2023-03-13T06:09:14.856Z,76.73
2023-03-13T06:12:18.600Z,76.07
2023-03-13T06:15:23.747Z,76.09
2023-03-13T06:18:31.392Z,74.98
2023-03-13T06:21:34.389Z,74.69
2023-03-13T06:24:37.382Z,73.89
2023-03-13T06:27:44.001Z,73.38
2023-03-13T06:30:47.473Z,72.13
2023-03-13T06:33:54.813Z,72.00
2023-03-13T06:36:58.968Z,71.04
2023-03-13T06:40:01.619Z,67.96
2023-03-13T06:43:05.613Z,66.40
2023-03-13T06:46:11.988Z,62.02
2023-03-13T06:49:18.054Z,61.22
2023-03-13T06:52:23.284Z,59.97
2023-03-13T06:55:30.069Z,58.83
2023-03-13T06:58:33.211Z,60.04
2023-03-13T07:01:36.804Z,58.39
2023-03-13T07:04:39.575Z,58.00
2023-03-13T07:07:43.869Z,56.52
2023-03-13T07:10:48.612Z,56.82
2023-03-13T07:14:06.550Z,57.87
2023-03-13T07:17:19.334Z,56.11
2023-03-13T07:20:22.901Z,55.07
2023-03-13T07:23:27.571Z,54.86
2023-03-13T07:26:30.664Z,52.59
2023-03-13T07:29:33.392Z,51.11
2023-03-13T07:32:39.202Z,51.00
2023-03-13T07:35:48.450Z,49.57
2023-03-13T07:38:52.652Z,48.91
2023-03-13T07:41:56.013Z,49.29
2023-03-13T07:44:58.920Z,47.87
2023-03-13T07:48:01.485Z,47.44
2023-03-13T07:51:06.946Z,47.74
2023-03-13T07:54:09.607Z,47.35
2023-03-13T07:57:12.745Z,46.64
2023-03-13T08:00:19.047Z,45.18
2023-03-13T08:03:25.667Z,44.19
2023-03-13T08:06:33.798Z,42.61
2023-03-13T08:09:38.562Z,42.41
2023-03-13T08:12:41.233Z,42.86
2023-03-13T08:15:44.129Z,41.98
2023-03-13T08:18:52.349Z,41.43
2023-03-13T08:21:55.289Z,41.73
2023-03-13T08:24:58.068Z,41.73
2023-03-13T08:28:26.358Z,41.03
2023-03-13T08:31:31.687Z,40.64
2023-03-13T08:34:36.961Z,39.47
2023-03-13T08:37:39.588Z,39.92
2023-03-13T08:40:43.378Z,39.25
2023-03-13T08:43:47.604Z,39.82
2023-03-13T08:46:50.652Z,39.42
2023-03-13T08:49:55.320Z,38.82
2023-03-13T08:53:12.946Z,38.28
2023-03-13T08:56:19.061Z,37.50
2023-03-13T08:59:21.815Z,36.80
2023-03-13T09:02:24.774Z,37.57
2023-03-13T09:05:28.143Z,37.67
2023-03-13T09:08:33.555Z,36.48
2023-03-13T09:11:37.971Z,35.32
2023-03-13T09:14:41.532Z,36.50
2023-03-13T09:17:44.409Z,36.35
2023-03-13T09:20:49.997Z,35.46
2023-03-13T09:23:53.003Z,34.85
2023-03-13T09:27:01.352Z,34.63
2023-03-13T09:30:04.962Z,34.37
2023-03-13T09:33:07.912Z,34.84
2023-03-13T09:36:10.687Z,34.27
2023-03-13T09:39:13.788Z,35.18
2023-03-13T09:42:30.908Z,35.71
2023-03-13T09:45:41.675Z,34.44
2023-03-13T09:48:57.873Z,34.57
2023-03-13T09:52:21.266Z,33.34
2023-03-13T09:55:29.322Z,33.12
2023-03-13T09:58:34.745Z,34.41
2023-03-13T10:01:41.229Z,34.95
2023-03-13T10:04:52.501Z,32.89
2023-03-13T10:08:19.202Z,32.59
2023-03-13T10:11:44.690Z,32.80
2023-03-13T10:15:08.075Z,33.37
2023-03-13T10:18:23.313Z,33.12
2023-03-13T10:21:37.306Z,31.32
2023-03-13T10:24:55.934Z,31.88
2023-03-13T10:27:59.099Z,31.47
2023-03-13T10:31:31.446Z,31.85
2023-03-13T10:34:52.413Z,32.13
2023-03-13T10:38:04.906Z,32.85
2023-03-13T10:41:29.215Z,32.50
2023-03-13T10:44:33.680Z,32.07
2023-03-13T10:47:36.934Z,32.62
2023-03-13T10:50:48.894Z,32.69
2023-03-13T11:30:16.691Z,32.86
2023-03-13T11:34:01.110Z,34.06
2023-03-13T11:37:11.967Z,33.61
2023-03-13T11:40:22.801Z,34.22
2023-03-13T11:43:45.861Z,33.24
2023-03-13T11:47:12.869Z,33.29
2023-03-13T11:50:46.659Z,34.41
2023-03-13T11:54:05.307Z,35.16
2023-03-13T11:57:18.265Z,34.72
2023-03-13T12:00:24.778Z,34.95
2023-03-13T12:03:39.199Z,34.67
2023-03-13T12:06:47.552Z,35.06
2023-03-13T12:09:58.063Z,34.05
2023-03-13T12:13:14.622Z,32.92
2023-03-13T12:16:23.968Z,33.39
2023-03-13T12:19:55.624Z,34.21
2023-03-13T12:23:19.693Z,35.02
2023-03-13T12:30:40.680Z,36.45
2023-03-13T12:33:57.825Z,37.19
2023-03-13T12:37:20.248Z,37.66
2023-03-13T12:40:49.852Z,38.10
2023-03-13T12:44:07.652Z,38.04
2023-03-13T12:47:34.499Z,38.10
2023-03-13T12:50:49.200Z,38.04
2023-03-13T12:54:32.020Z,38.30
2023-03-13T12:58:13.030Z,38.57
2023-03-13T13:01:26.824Z,38.77
2023-03-13T13:04:34.129Z,39.37
2023-03-13T13:07:38.663Z,39.40
2023-03-13T13:10:42.538Z,39.55
2023-03-13T13:13:45.609Z,39.88
2023-03-13T13:17:13.442Z,39.55
2023-03-13T13:33:35.625Z,40.21
2023-03-13T16:49:57.931Z,48.03
2023-03-13T16:53:02.121Z,48.07
2023-03-13T16:56:05.171Z,48.41
2023-03-13T16:59:19.065Z,48.69
2023-03-13T17:02:21.687Z,48.90
2023-03-13T17:05:27.035Z,49.30
2023-03-13T17:08:30.076Z,49.17
2023-03-13T17:11:33.570Z,49.25
2023-03-13T17:14:38.309Z,48.97
2023-03-13T17:17:42.389Z,49.02
2023-03-13T17:20:48.485Z,48.88
2023-03-13T17:23:52.192Z,48.57
2023-03-13T17:26:55.086Z,48.79
2023-03-13T17:30:15.526Z,48.88
2023-03-13T17:33:19.645Z,48.78
2023-03-13T17:36:25.360Z,48.75
2023-03-13T17:39:28.946Z,48.86
2023-03-13T17:42:34.000Z,48.69
2023-03-13T17:45:56.658Z,48.67
2023-03-13T19:03:34.730Z,53.24
2023-03-13T19:06:38.433Z,53.18
2023-03-13T19:09:44.098Z,53.12
2023-03-13T19:12:48.765Z,53.53
2023-03-13T19:15:51.485Z,53.76
2023-03-13T19:18:57.473Z,54.11
2023-03-13T19:22:01.103Z,54.43
2023-03-13T19:25:07.200Z,55.04
2023-03-13T19:28:12.120Z,55.13
2023-03-13T19:31:16.975Z,55.65
2023-03-13T19:34:23.715Z,55.40
2023-03-13T19:37:27.386Z,55.25
2023-03-13T19:40:30.965Z,55.09
2023-03-13T19:43:34.362Z,55.24
2023-03-13T19:46:44.144Z,54.83
2023-03-13T19:49:49.934Z,54.71
2023-03-13T19:53:03.340Z,54.84
2023-03-13T19:56:28.083Z,54.78
2023-03-13T19:59:35.229Z,55.11
2023-03-13T20:07:41.108Z,55.09
2023-03-13T20:10:47.878Z,54.88
2023-03-13T20:13:56.912Z,54.09
2023-03-13T20:17:00.138Z,54.07
2023-03-13T20:20:05.635Z,53.47
2023-03-13T20:23:09.287Z,52.78
2023-03-13T20:48:58.864Z,50.30
2023-03-13T21:09:50.927Z,51.61
2023-03-13T21:12:55.446Z,51.91
2023-03-13T21:16:04.925Z,51.65
2023-03-13T21:19:07.909Z,51.40
2023-03-13T21:22:13.695Z,51.44
2023-03-13T21:25:16.987Z,51.59
2023-03-13T21:28:22.260Z,51.08
2023-03-13T21:31:25.603Z,50.74
2023-03-13T21:34:28.145Z,51.13
2023-03-13T21:37:32.070Z,51.03
2023-03-13T21:40:34.820Z,51.12
2023-03-13T21:43:41.866Z,50.88
2023-03-13T21:46:44.411Z,50.64
2023-03-13T21:49:47.524Z,50.50
2023-03-13T21:52:51.030Z,50.30
2023-03-13T21:55:53.997Z,49.88
2023-03-13T21:58:57.319Z,49.93
2023-03-13T22:02:00.632Z,49.95
2023-03-13T22:05:07.262Z,50.05
2023-03-13T22:08:12.270Z,49.39
2023-03-13T22:11:16.142Z,49.49
2023-03-13T22:14:21.618Z,49.40
2023-03-13T22:17:25.074Z,49.23
2023-03-13T22:20:29.076Z,49.10
2023-03-13T22:23:32.414Z,48.97
2023-03-13T22:26:35.105Z,49.25
2023-03-13T22:29:38.222Z,49.19
2023-03-13T22:32:41.251Z,49.29
2023-03-13T22:35:50.134Z,49.36
2023-03-13T22:38:52.828Z,49.29
2023-03-13T22:41:56.146Z,49.38
2023-03-13T22:45:01.189Z,49.39
2023-03-13T22:48:06.511Z,49.18
2023-03-13T22:51:12.214Z,49.37
2023-03-13T22:54:15.136Z,49.35
2023-03-13T22:57:19.668Z,49.50
2023-03-13T23:00:24.364Z,49.72
2023-03-13T23:03:27.009Z,49.71
2023-03-13T23:06:30.131Z,49.60
2023-03-13T23:09:32.669Z,49.69
2023-03-13T23:12:36.117Z,49.91
2023-03-13T23:15:55.362Z,49.96
2023-03-13T23:18:58.933Z,49.52
2023-03-13T23:22:01.879Z,49.38
2023-03-13T23:25:05.659Z,49.35
2023-03-13T23:28:08.224Z,49.48
2023-03-13T23:31:13.238Z,49.75
2023-03-13T23:34:21.825Z,49.43
2023-03-13T23:37:27.818Z,49.41
2023-03-13T23:40:30.942Z,49.28
2023-03-13T23:43:36.893Z,49.61
2023-03-13T23:46:39.634Z,49.41
2023-03-13T23:49:42.736Z,49.53
2023-03-13T23:52:45.801Z,49.43
2023-03-13T23:55:57.254Z,49.48
2023-03-13T23:59:01.065Z,49.29
